Time;durP1;ratioP1;P1;durP2;ratioP2;P2;SDS_P1;SDS_P2;PMS_P1;PMS_P2;Temp;Humidity;BMP_temperature;BMP_pressure;BME280_temperature;BME280_humidity;BME280_pressure;Samples;Min_cycle;Max_cycle;Signal;HPM_P1;HPM_P2
2023/09/12 00:00:52;;;;;;;30.10;15.50;;;;;;;18.36;100.00;101392.66;6070744;19;20031;-74
2023/09/12 00:03:00;;;;;;;27.63;14.32;;;;;;;18.27;100.00;101386.09;6074101;19;20340;-74
2023/09/12 00:05:06;;;;;;;31.25;14.13;;;;;;;18.24;100.00;101388.94;6070908;19;20308;-75
2023/09/12 00:07:12;;;;;;;30.95;16.00;;;;;;;18.23;100.00;101389.06;6066482;19;20006;-75
2023/09/12 00:09:17;;;;;;;24.58;13.65;;;;;;;18.19;100.00;101389.25;6076877;19;20055;-76
2023/09/12 00:11:25;;;;;;;39.53;16.33;;;;;;;18.17;100.00;101387.66;6076698;19;20003;-74
2023/09/12 00:13:31;;;;;;;34.00;16.20;;;;;;;18.14;100.00;101393.13;6072091;19;20295;-75
2023/09/12 00:15:36;;;;;;;32.10;15.38;;;;;;;18.13;100.00;101388.78;6073326;19;20010;-74
2023/09/12 00:17:45;;;;;;;33.10;16.13;;;;;;;18.10;100.00;101389.00;6073778;19;20011;-74
2023/09/12 00:19:47;;;;;;;35.15;16.02;;;;;;;18.05;100.00;101381.28;6079949;19;20045;-74
2023/09/12 00:21:53;;;;;;;33.63;17.23;;;;;;;18.02;100.00;101383.31;6073209;19;20021;-73
2023/09/12 00:24:01;;;;;;;30.50;13.52;;;;;;;18.03;100.00;101377.88;6078312;19;20105;-75
2023/09/12 00:26:07;;;;;;;34.60;17.25;;;;;;;18.03;100.00;101371.69;6076481;19;20323;-74
2023/09/12 00:28:12;;;;;;;27.75;14.27;;;;;;;17.98;100.00;101367.53;6074969;19;20031;-74
2023/09/12 00:30:18;;;;;;;31.10;15.25;;;;;;;17.99;100.00;101366.56;6072909;19;20035;-74
2023/09/12 00:32:24;;;;;;;37.90;18.63;;;;;;;17.99;100.00;101365.72;6068998;19;20011;-74
2023/09/12 00:34:31;;;;;;;34.30;17.33;;;;;;;17.95;100.00;101365.06;6071541;19;20303;-74
2023/09/12 00:36:34;;;;;;;37.40;16.50;;;;;;;17.99;100.00;101363.91;6068033;19;20084;-74
2023/09/12 00:38:39;;;;;;;;;;;;;;;17.97;100.00;101367.63;6071274;19;20011;-74
2023/09/12 00:40:48;;;;;;;43.65;18.75;;;;;;;17.97;100.00;101357.84;6070784;19;19910;-74
2023/09/12 00:42:52;;;;;;;49.00;21.67;;;;;;;17.93;100.00;101361.66;6067020;19;20023;-74
2023/09/12 00:44:55;;;;;;;49.83;20.73;;;;;;;17.91;100.00;101352.91;6066966;19;20503;-74
2023/09/12 00:47:00;;;;;;;53.28;22.48;;;;;;;17.92;100.00;101351.94;6066785;19;20025;-74
2023/09/12 00:49:08;;;;;;;53.15;23.90;;;;;;;17.95;100.00;101364.19;6065688;19;20283;-73
2023/09/12 00:51:16;;;;;;;50.20;22.30;;;;;;;17.93;100.00;101356.34;6070753;19;20002;-73
2023/09/12 00:53:23;;;;;;;55.15;22.73;;;;;;;17.93;100.00;101356.34;6064743;19;20035;-74
2023/09/12 00:55:29;;;;;;;48.15;21.48;;;;;;;17.91;100.00;101350.25;6070047;19;20474;-73
2023/09/12 00:57:37;;;;;;;58.17;23.75;;;;;;;17.88;100.00;101355.78;6064567;19;20054;-74
2023/09/12 00:59:42;;;;;;;49.80;20.63;;;;;;;17.87;100.00;101354.03;6072246;19;20006;-74
2023/09/12 01:01:47;;;;;;;53.70;22.60;;;;;;;17.85;100.00;101353.31;6064061;19;20177;-74
2023/09/12 01:03:54;;;;;;;47.80;21.58;;;;;;;17.86;100.00;101354.16;6067706;19;20295;-73
2023/09/12 01:06:01;;;;;;;52.50;22.33;;;;;;;17.82;100.00;101353.47;6067414;19;20043;-74
2023/09/12 01:08:09;;;;;;;47.53;21.90;;;;;;;17.87;100.00;101355.84;6069892;19;20527;-74
2023/09/12 01:10:14;;;;;;;44.03;20.13;;;;;;;17.84;100.00;101351.59;6067741;19;20013;-73
2023/09/12 01:12:21;;;;;;;51.95;22.15;;;;;;;17.79;100.00;101353.69;6065788;19;20027;-73
2023/09/12 01:14:29;;;;;;;46.17;19.63;;;;;;;17.76;100.00;101343.22;6066149;19;20014;-76
2023/09/12 01:16:34;;;;;;;44.47;21.00;;;;;;;17.75;100.00;101347.69;6073759;19;20038;-76
2023/09/12 01:18:42;;;;;;;38.03;18.48;;;;;;;17.71;100.00;101345.31;6071866;19;20011;-74
2023/09/12 01:21:09;;;;;;;42.25;18.92;;;;;;;17.69;100.00;101344.53;6074006;19;20010;-74
2023/09/12 01:23:30;;;;;;;46.42;21.15;;;;;;;17.70;100.00;101348.91;6068890;19;20020;-75
2023/09/12 01:26:24;;;;;;;36.95;17.38;;;;;;;17.66;100.00;101337.59;6067207;19;20130;-74
2023/09/12 01:28:37;;;;;;;31.37;16.50;;;;;;;17.62;100.00;101336.09;6071280;19;20709;-74
2023/09/12 01:30:44;;;;;;;38.28;18.75;;;;;;;17.59;100.00;101341.63;6074283;19;20412;-75
2023/09/12 01:32:50;;;;;;;38.75;16.25;;;;;;;17.58;100.00;101339.03;6065037;19;20014;-74
2023/09/12 01:34:55;;;;;;;30.70;16.35;;;;;;;17.57;100.00;101337.34;6067177;19;20179;-74
2023/09/12 01:37:00;;;;;;;36.00;16.05;;;;;;;17.53;100.00;101339.31;6071791;19;20296;-74
2023/09/12 01:39:05;;;;;;;35.33;16.40;;;;;;;17.51;100.00;101338.59;6067169;19;20035;-74
2023/09/12 01:41:11;;;;;;;34.47;14.20;;;;;;;17.51;100.00;101347.41;6069370;19;20766;-75
2023/09/12 01:43:19;;;;;;;34.25;16.25;;;;;;;17.49;100.00;101336.00;6069818;19;20476;-74
2023/09/12 01:45:27;;;;;;;35.75;16.88;;;;;;;17.46;100.00;101344.16;6071815;19;20098;-74
2023/09/12 01:47:34;;;;;;;35.15;15.55;;;;;;;17.45;100.00;101337.13;6070808;19;20039;-74
2023/09/12 01:49:44;;;;;;;36.53;17.33;;;;;;;17.47;100.00;101337.06;6068468;19;20512;-74
2023/09/12 01:51:49;;;;;;;39.63;18.23;;;;;;;17.45;100.00;101329.16;6075197;19;20439;-75
2023/09/12 01:53:59;;;;;;;37.97;16.42;;;;;;;17.43;100.00;101335.50;6070330;19;20021;-73
2023/09/12 01:56:02;;;;;;;37.47;17.15;;;;;;;17.43;100.00;101331.06;6079554;19;20438;-73
2023/09/12 01:58:07;;;;;;;;;;;;;;;17.42;100.00;101336.47;6071605;19;20445;-74
2023/09/12 02:00:16;;;;;;;28.98;13.40;;;;;;;17.37;100.00;101335.91;6073097;19;19915;-73
2023/09/12 02:02:24;;;;;;;34.58;15.90;;;;;;;17.37;100.00;101336.75;6067337;19;20039;-75
2023/09/12 02:04:29;;;;;;;31.35;15.23;;;;;;;17.34;100.00;101344.91;6068839;19;20114;-75
2023/09/12 02:06:37;;;;;;;29.92;13.88;;;;;;;17.31;100.00;101342.44;6068351;19;20042;-75
2023/09/12 02:08:42;;;;;;;35.72;15.80;;;;;;;17.27;100.00;101338.25;6069904;19;20015;-73
2023/09/12 02:10:48;;;;;;;35.13;16.98;;;;;;;17.26;100.00;101333.91;6071645;19;20846;-73
2023/09/12 02:12:55;;;;;;;35.83;16.80;;;;;;;17.22;100.00;101333.25;6073945;19;20010;-74
2023/09/12 02:15:00;;;;;;;30.63;14.00;;;;;;;17.24;100.00;101330.47;6072317;19;20018;-74
2023/09/12 02:17:06;;;;;;;31.55;13.27;;;;;;;17.22;100.00;101333.25;6073138;19;20989;-74
2023/09/12 02:19:14;;;;;;;33.60;15.27;;;;;;;17.18;100.00;101336.16;6073675;19;20011;-75
2023/09/12 02:21:19;;;;;;;37.33;15.18;;;;;;;17.20;100.00;101345.75;6073905;19;20653;-75
2023/09/12 02:23:24;;;;;;;33.35;13.95;;;;;;;17.15;100.00;101331.03;6072576;19;20507;-75
2023/09/12 02:25:29;;;;;;;32.65;15.43;;;;;;;17.13;100.00;101333.78;6069889;19;20658;-75
2023/09/12 02:27:34;;;;;;;35.60;15.52;;;;;;;17.16;100.00;101333.59;6072854;19;20043;-75
2023/09/12 02:29:43;;;;;;;36.83;16.90;;;;;;;17.11;100.00;101336.53;6070258;19;20503;-75
2023/09/12 02:31:48;;;;;;;38.28;16.33;;;;;;;17.08;100.00;101341.16;6071724;19;20007;-75
2023/09/12 02:33:54;;;;;;;31.95;14.50;;;;;;;17.06;100.00;101335.09;6067106;19;20322;-73
2023/09/12 02:36:02;;;;;;;32.97;15.60;;;;;;;17.11;100.00;101343.63;6069293;19;20205;-74
2023/09/12 02:38:07;;;;;;;38.88;17.00;;;;;;;17.18;100.00;101337.00;6075132;19;20501;-73
2023/09/12 02:40:14;;;;;;;33.22;15.00;;;;;;;17.20;100.00;101343.09;6069909;19;20076;-73
2023/09/12 02:42:19;;;;;;;38.45;17.95;;;;;;;17.22;100.00;101348.28;6073255;19;20206;-73
2023/09/12 02:44:24;;;;;;;36.55;17.88;;;;;;;17.22;100.00;101338.56;6072112;19;20006;-74
2023/09/12 02:46:30;;;;;;;50.78;18.45;;;;;;;17.24;100.00;101338.44;6067743;19;20007;-74
2023/09/12 02:48:35;;;;;;;44.75;19.20;;;;;;;17.29;100.00;101333.72;6071392;19;20511;-74
2023/09/12 02:50:43;;;;;;;41.38;18.52;;;;;;;17.25;100.00;101340.16;6077600;19;20352;-74
2023/09/12 02:52:51;;;;;;;39.15;17.80;;;;;;;17.24;100.00;101338.44;6073611;19;20036;-74
2023/09/12 02:54:59;;;;;;;34.47;15.85;;;;;;;17.23;100.00;101337.59;6076677;19;20333;-74
2023/09/12 02:57:04;;;;;;;38.97;15.80;;;;;;;17.23;100.00;101328.78;6080519;19;20010;-74
2023/09/12 02:59:09;;;;;;;34.47;16.92;;;;;;;17.26;100.00;101328.59;6072221;19;20451;-75
2023/09/12 03:01:17;;;;;;;35.22;16.08;;;;;;;17.26;100.00;101317.97;6076376;19;20043;-74
2023/09/12 03:03:23;;;;;;;30.85;14.43;;;;;;;17.28;100.00;101324.03;6077432;19;20050;-74
2023/09/12 03:05:31;;;;;;;33.58;15.85;;;;;;;17.33;100.00;101324.63;6071180;19;20284;-73
2023/09/12 03:07:36;;;;;;;37.40;16.38;;;;;;;17.39;100.00;101326.88;6075218;19;20007;-74
2023/09/12 03:09:44;;;;;;;37.20;14.93;;;;;;;17.38;100.00;101332.28;6076404;19;20320;-74
2023/09/12 03:11:49;;;;;;;31.67;15.35;;;;;;;17.38;100.00;101325.19;6076420;19;20355;-74
2023/09/12 03:13:54;;;;;;;33.15;15.60;;;;;;;17.42;100.00;101324.03;6077862;19;20295;-74
2023/09/12 03:16:02;;;;;;;34.67;16.63;;;;;;;17.38;100.00;101321.66;6077142;19;20389;-74
2023/09/12 03:18:10;;;;;;;33.45;14.63;;;;;;;17.43;100.00;101327.53;6077924;19;20021;-74
2023/09/12 03:20:15;;;;;;;38.83;16.42;;;;;;;17.46;100.00;101317.59;6080880;19;20601;-74
2023/09/12 03:22:17;;;;;;;40.75;17.02;;;;;;;17.46;100.00;101317.59;6073216;19;20650;-74
2023/09/12 03:24:25;;;;;;;32.58;15.10;;;;;;;17.49;100.00;101317.41;6071377;19;20014;-75
2023/09/12 03:26:36;;;;;;;34.20;16.15;;;;;;;17.48;100.00;101314.84;6072983;19;20003;-73
2023/09/12 03:28:41;;;;;;;33.38;14.55;;;;;;;17.48;100.00;101313.06;6080559;19;20027;-73
2023/09/12 03:30:47;;;;;;;33.15;15.48;;;;;;;17.45;100.00;101307.91;6076361;19;20316;-73
2023/09/12 03:32:52;;;;;;;39.00;15.93;;;;;;;17.53;100.00;101308.28;6071922;19;20630;-74
2023/09/12 03:34:59;;;;;;;35.97;16.23;;;;;;;17.57;100.00;101316.09;6068788;19;20011;-73
2023/09/12 03:37:05;;;;;;;34.25;14.75;;;;;;;17.54;100.00;101312.66;6069915;19;20007;-73
2023/09/12 03:39:12;;;;;;;30.42;15.48;;;;;;;17.58;100.00;101307.16;6072055;19;20299;-74
2023/09/12 03:41:15;;;;;;;34.67;15.13;;;;;;;17.58;100.00;101309.81;6071614;19;20033;-74
2023/09/12 03:43:24;;;;;;;30.05;14.82;;;;;;;17.60;100.00;101310.56;6068673;19;20199;-74
2023/09/12 03:45:29;;;;;;;35.10;15.38;;;;;;;17.62;100.00;101314.84;6073719;19;20006;-73
2023/09/12 03:47:34;;;;;;;34.45;15.18;;;;;;;17.64;100.00;101320.91;6073221;19;20469;-74
2023/09/12 03:49:39;;;;;;;33.50;14.55;;;;;;;17.65;100.00;101314.66;6076677;19;20457;-74
2023/09/12 03:51:47;;;;;;;33.95;14.18;;;;;;;17.64;100.00;101318.25;6069673;19;20438;-74
2023/09/12 03:53:52;;;;;;;39.88;16.20;;;;;;;17.67;100.00;101311.91;6064961;19;20036;-73
2023/09/12 03:55:58;;;;;;;34.97;15.73;;;;;;;17.68;100.00;101317.09;6068132;19;20530;-75
2023/09/12 03:58:03;;;;;;;38.03;15.20;;;;;;;17.71;100.00;101321.38;6072973;19;20010;-74
2023/09/12 04:00:12;;;;;;;35.13;15.57;;;;;;;17.75;100.00;101320.25;6071467;19;20601;-75
2023/09/12 04:02:17;;;;;;;36.67;15.10;;;;;;;17.71;100.00;101308.09;6068208;19;20047;-73
2023/09/12 04:04:22;;;;;;;45.13;18.13;;;;;;;17.71;100.00;101303.63;6067204;19;20010;-73
2023/09/12 04:06:28;;;;;;;48.30;18.38;;;;;;;17.75;100.00;101312.28;6074750;19;21346;-76
2023/09/12 04:08:36;;;;;;;39.83;17.52;;;;;;;17.81;100.00;101317.22;6072871;19;20003;-73
2023/09/12 04:10:41;;;;;;;43.05;16.70;;;;;;;17.86;100.00;101314.28;6063978;19;20365;-73
2023/09/12 04:12:47;;;;;;;50.47;18.83;;;;;;;17.89;100.00;101322.06;6067835;19;20007;-74
2023/09/12 04:14:56;;;;;;;49.80;20.02;;;;;;;17.91;100.00;101313.03;6066730;19;20026;-74
2023/09/12 04:17:03;;;;;;;45.08;17.20;;;;;;;17.90;100.00;101319.28;6072101;19;20083;-75
2023/09/12 04:19:12;;;;;;;42.55;18.58;;;;;;;17.89;100.00;101312.28;6072921;19;20363;-75
2023/09/12 04:21:17;;;;;;;41.88;18.08;;;;;;;17.90;100.00;101313.97;6065476;19;20175;-74
2023/09/12 04:23:22;;;;;;;42.92;17.17;;;;;;;17.89;100.00;101324.72;6073743;19;20019;-74
2023/09/12 04:25:27;;;;;;;41.67;17.70;;;;;;;17.85;100.00;101316.09;6070963;19;20042;-74
2023/09/12 04:27:34;;;;;;;42.58;16.80;;;;;;;17.88;100.00;101315.03;6067264;19;20300;-74
2023/09/12 04:29:39;;;;;;;46.70;18.95;;;;;;;17.92;100.00;101316.53;6070673;19;20018;-74
2023/09/12 04:31:44;;;;;;;48.55;17.80;;;;;;;17.91;100.00;101321.00;6067778;19;20283;-75
2023/09/12 04:33:53;;;;;;;39.95;17.77;;;;;;;17.92;100.00;101316.53;6071599;19;20071;-73
2023/09/12 04:36:02;;;;;;;44.78;17.52;;;;;;;17.96;100.00;101323.38;6067773;19;20550;-74
2023/09/12 04:38:07;;;;;;;44.63;18.83;;;;;;;17.97;100.00;101325.06;6071076;19;20085;-74
2023/09/12 04:40:13;;;;;;;39.53;17.60;;;;;;;17.98;100.00;101326.78;6075643;19;20014;-75
2023/09/12 04:42:18;;;;;;;47.88;19.08;;;;;;;18.01;100.00;101326.59;6073012;19;20724;-73
2023/09/12 04:44:23;;;;;;;41.30;18.30;;;;;;;18.05;100.00;101322.78;6073138;19;20018;-73
2023/09/12 04:46:28;;;;;;;43.95;17.65;;;;;;;18.08;100.00;101327.06;6072260;19;20037;-73
2023/09/12 04:48:36;;;;;;;42.53;18.45;;;;;;;18.11;100.00;101324.19;6073645;19;20175;-74
2023/09/12 04:50:46;;;;;;;48.85;19.67;;;;;;;18.12;100.00;101318.78;6077505;19;20496;-75
2023/09/12 04:52:51;;;;;;;41.47;16.83;;;;;;;18.15;100.00;101320.38;6071588;19;20007;-74
2023/09/12 04:54:59;;;;;;;38.58;17.40;;;;;;;18.16;100.00;101322.09;6074044;19;20080;-75
2023/09/12 04:57:04;;;;;;;45.45;18.95;;;;;;;18.21;100.00;101317.31;6076523;19;20471;-74
2023/09/12 04:59:10;;;;;;;46.20;18.65;;;;;;;18.17;100.00;101316.69;6073908;19;21081;-74
2023/09/12 05:01:16;;;;;;;41.75;17.65;;;;;;;18.20;100.00;101323.59;6071756;19;20241;-73
2023/09/12 05:03:21;;;;;;;52.15;20.35;;;;;;;18.19;100.00;101321.88;6075631;19;20019;-74
2023/09/12 05:05:33;;;;;;;45.83;18.52;;;;;;;18.21;100.00;101320.84;6074293;19;21081;-72
2023/09/12 05:07:40;;;;;;;40.15;18.52;;;;;;;18.21;100.00;101318.16;6065844;19;20252;-74
2023/09/12 05:09:46;;;;;;;45.97;17.98;;;;;;;18.24;100.00;101322.44;6072731;19;20011;-73
2023/09/12 05:11:51;;;;;;;47.55;18.95;;;;;;;18.30;100.00;101324.72;6070765;19;20211;-74
2023/09/12 05:13:59;;;;;;;47.42;20.13;;;;;;;18.31;100.00;101323.75;6075333;19;20053;-74
2023/09/12 05:16:04;;;;;;;49.97;20.92;;;;;;;18.33;100.00;101327.19;6071436;19;20381;-73
2023/09/12 05:18:11;;;;;;;48.80;19.27;;;;;;;18.32;100.00;101320.13;6075309;19;20307;-73
2023/09/12 05:20:17;;;;;;;48.47;19.35;;;;;;;18.34;100.00;101318.22;6068318;19;20586;-72
2023/09/12 05:22:22;;;;;;;61.58;22.48;;;;;;;18.35;100.00;101319.97;6073266;19;20082;-74
2023/09/12 05:24:32;;;;;;;51.10;22.40;;;;;;;18.34;100.00;101317.38;6066753;19;20305;-74
2023/09/12 05:26:34;;;;;;;62.35;21.55;;;;;;;18.38;100.00;101321.56;6066159;19;20785;-74
2023/09/12 05:28:40;;;;;;;58.67;21.48;;;;;;;18.40;100.00;101328.50;6067357;19;20007;-74
2023/09/12 05:30:46;;;;;;;54.63;22.50;;;;;;;18.45;100.00;101319.34;6065276;19;20024;-73
2023/09/12 05:32:51;;;;;;;61.95;23.52;;;;;;;18.45;100.00;101327.31;6065563;19;20384;-73
2023/09/12 05:34:59;;;;;;;63.78;25.20;;;;;;;18.51;100.00;101325.13;6064632;19;20132;-73
2023/09/12 05:37:23;;;;;;;69.20;25.88;;;;;;;18.51;100.00;101333.09;6061259;19;20006;-73
2023/09/12 05:39:31;;;;;;;64.32;22.15;;;;;;;18.54;100.00;101327.56;6068308;19;20031;-73
2023/09/12 05:41:36;;;;;;;61.83;24.35;;;;;;;18.52;100.00;101326.81;6067621;19;20601;-72
2023/09/12 05:43:41;;;;;;;63.50;24.35;;;;;;;18.57;100.00;101321.19;6066897;19;20024;-75
2023/09/12 05:45:49;;;;;;;65.05;22.45;;;;;;;18.56;100.00;101323.00;6068218;19;20754;-75
2023/09/12 05:47:54;;;;;;;58.53;22.90;;;;;;;18.57;100.00;101323.84;6064154;19;20043;-73
2023/09/12 05:50:00;;;;;;;63.17;23.85;;;;;;;18.62;100.00;101332.38;6071222;19;20470;-73
2023/09/12 05:52:09;;;;;;;56.22;21.95;;;;;;;18.62;100.00;101340.38;6064479;19;21162;-72
2023/09/12 05:54:15;;;;;;;57.47;22.65;;;;;;;18.64;100.00;101333.13;6067072;19;20394;-73
2023/09/12 05:56:23;;;;;;;64.90;24.67;;;;;;;18.69;100.00;101336.31;6070141;19;20516;-73
2023/09/12 05:58:30;;;;;;;67.50;25.27;;;;;;;18.68;100.00;101331.97;6075839;19;20077;-73
2023/09/12 06:00:36;;;;;;;58.45;22.38;;;;;;;18.74;100.00;101334.22;6073663;19;20018;-74
2023/09/12 06:02:42;;;;;;;69.32;23.02;;;;;;;18.73;100.00;101335.19;6070499;19;20024;-74
2023/09/12 06:04:47;;;;;;;55.88;22.00;;;;;;;18.76;100.00;101332.34;6075262;19;20650;-74
2023/09/12 06:06:55;;;;;;;60.13;23.92;;;;;;;18.75;100.00;101343.13;6077193;19;20014;-73
2023/09/12 06:09:00;;;;;;;60.67;22.77;;;;;;;18.79;100.00;101336.59;6073826;19;20515;-73
2023/09/12 06:11:06;;;;;;;66.82;25.05;;;;;;;18.81;100.00;101348.84;6080360;19;20016;-73
2023/09/12 06:13:14;;;;;;;59.13;23.98;;;;;;;18.76;100.00;101343.00;6076672;19;20023;-74
2023/09/12 06:15:19;;;;;;;61.65;23.05;;;;;;;18.80;100.00;101344.50;6077243;19;20707;-73
2023/09/12 06:17:24;;;;;;;65.47;24.13;;;;;;;18.83;100.00;101346.97;6078195;19;20070;-73
2023/09/12 06:19:30;;;;;;;57.53;22.80;;;;;;;18.86;100.00;101341.41;6081057;19;20006;-73
2023/09/12 06:21:35;;;;;;;61.95;24.10;;;;;;;18.85;100.00;101345.06;6079310;19;20691;-74
2023/09/12 06:23:40;;;;;;;62.00;23.08;;;;;;;18.82;100.00;101345.22;6075854;19;20013;-75
2023/09/12 06:25:46;;;;;;;59.38;22.95;;;;;;;18.90;100.00;101349.19;6074265;19;20522;-74
2023/09/12 06:27:52;;;;;;;57.72;22.90;;;;;;;18.97;100.00;101353.16;6081573;19;22266;-74
2023/09/12 06:30:00;;;;;;;64.90;26.05;;;;;;;19.00;100.00;101355.59;6075656;19;20015;-74
2023/09/12 06:32:07;;;;;;;61.55;24.23;;;;;;;19.02;100.00;101351.03;6072665;19;20018;-75
2023/09/12 06:34:12;;;;;;;58.08;23.83;;;;;;;18.99;100.00;101353.91;6068750;19;20347;-72
2023/09/12 06:36:17;;;;;;;62.13;24.42;;;;;;;19.07;100.00;101354.25;6073338;19;20064;-73
2023/09/12 06:38:20;;;;;;;71.90;25.83;;;;;;;19.07;100.00;101359.56;6075804;19;20031;-72
2023/09/12 06:40:25;;;;;;;67.95;26.85;;;;;;;19.14;100.00;101360.00;6071211;19;20044;-74
2023/09/12 06:42:31;;;;;;;72.95;25.35;;;;;;;19.22;100.00;101366.53;6082301;19;20926;-74
2023/09/12 06:44:36;;;;;;;68.05;25.42;;;;;;;19.31;100.00;101362.38;6074604;19;20636;-74
2023/09/12 06:46:47;;;;;;;70.07;25.45;;;;;;;19.33;100.00;101357.78;6072213;19;20051;-74
2023/09/12 06:48:56;;;;;;;60.28;25.80;;;;;;;19.35;100.00;101363.84;6073810;19;20010;-72
2023/09/12 06:51:02;;;;;;;65.68;22.83;;;;;;;19.41;100.00;101359.94;6077119;19;20109;-73
2023/09/12 06:53:15;;;;;;;69.93;27.15;;;;;;;19.37;100.00;101358.41;6068881;19;20011;-72
2023/09/12 06:55:21;;;;;;;67.32;27.38;;;;;;;19.27;100.00;101360.84;6070445;19;20467;-75
2023/09/12 06:57:28;;;;;;;73.55;23.42;;;;;;;19.29;100.00;101357.13;6065223;19;20609;-74
2023/09/12 06:59:37;;;;;;;69.10;26.33;;;;;;;19.36;100.00;101360.25;6068139;19;20011;-73
2023/09/12 07:01:46;;;;;;;57.17;25.08;;;;;;;19.40;100.00;101364.38;6070671;19;20377;-73
2023/09/12 07:03:53;;;;;;;66.22;24.98;;;;;;;19.37;100.00;101358.41;6069631;19;22913;-73
2023/09/12 07:06:00;;;;;;;65.95;25.95;;;;;;;19.32;100.00;101364.06;6073281;19;20328;-73
2023/09/12 07:08:05;;;;;;;59.90;24.70;;;;;;;19.42;100.00;101361.63;6070468;19;20007;-74
2023/09/12 07:10:11;;;;;;;63.88;24.23;;;;;;;19.45;100.00;101358.75;6067242;19;20019;-74
2023/09/12 07:12:28;;;;;;;55.17;23.10;;;;;;;19.38;100.00;101366.31;6067068;19;20019;-75
2023/09/12 07:14:37;;;;;;;60.40;23.13;;;;;;;19.51;100.00;101367.19;6063424;19;20013;-73
2023/09/12 07:16:47;;;;;;;53.60;22.05;;;;;;;19.64;100.00;101369.84;6068165;19;20457;-73
2023/09/12 07:18:52;;;;;;;54.78;23.13;;;;;;;19.64;100.00;101375.16;6063460;19;20524;-73
2023/09/12 07:21:00;;;;;;;53.30;21.33;;;;;;;19.78;100.00;101365.38;6066042;19;20027;-73
2023/09/12 07:23:05;;;;;;;54.22;22.02;;;;;;;19.81;100.00;101370.50;6069279;19;20055;-74
2023/09/12 07:25:12;;;;;;;58.75;23.35;;;;;;;19.78;100.00;101371.56;6067760;19;20021;-73
2023/09/12 07:27:17;;;;;;;55.08;23.85;;;;;;;19.79;100.00;101381.25;6068808;19;20213;-74
2023/09/12 07:29:22;;;;;;;56.38;23.10;;;;;;;19.98;100.00;101383.47;6065487;19;20277;-74
2023/09/12 07:31:29;;;;;;;54.83;23.40;;;;;;;20.03;100.00;101386.66;6066463;19;20523;-73
2023/09/12 07:33:37;;;;;;;61.35;26.25;;;;;;;20.08;100.00;101381.84;6061614;19;20667;-73
2023/09/12 07:35:42;;;;;;;50.78;23.10;;;;;;;19.98;100.00;101383.47;6066798;19;20697;-73
2023/09/12 07:37:49;;;;;;;49.15;22.98;;;;;;;20.00;100.00;101383.34;6063606;19;20514;-73
2023/09/12 07:39:57;;;;;;;49.95;21.80;;;;;;;20.01;100.00;101388.59;6063813;19;20006;-73
2023/09/12 07:42:02;;;;;;;52.90;23.17;;;;;;;19.98;100.00;101385.28;6065748;19;20018;-73
2023/09/12 07:44:11;;;;;;;48.47;21.58;;;;;;;20.00;100.00;101381.53;6071467;19;20371;-73
2023/09/12 07:46:16;;;;;;;48.33;22.60;;;;;;;20.14;100.00;101393.88;6072266;19;20014;-72
2023/09/12 07:48:19;;;;;;;52.70;22.50;;;;;;;20.18;100.00;101398.03;6073378;19;20522;-73
2023/09/12 07:50:31;;;;;;;56.28;24.25;;;;;;;20.30;100.00;101398.97;6072672;19;20018;-73
2023/09/12 07:52:37;;;;;;;51.40;22.52;;;;;;;20.52;100.00;101388.44;6072236;19;20540;-73
2023/09/12 07:54:45;;;;;;;50.30;22.75;;;;;;;20.63;100.00;101382.31;6071924;19;20064;-74
2023/09/12 07:56:50;;;;;;;50.50;22.35;;;;;;;20.91;100.00;101389.13;6073653;19;20507;-73
2023/09/12 07:58:55;;;;;;;46.47;22.13;;;;;;;21.09;100.00;101391.38;6065635;19;20687;-73
2023/09/12 08:01:00;;;;;;;47.38;21.65;;;;;;;21.03;100.00;101379.31;6076203;19;20011;-73
2023/09/12 08:03:04;;;;;;;43.75;20.88;;;;;;;21.13;100.00;101390.19;6072228;19;20530;-74
2023/09/12 08:05:10;;;;;;;45.83;20.67;;;;;;;21.59;100.00;101386.63;6071649;19;20015;-73
2023/09/12 08:07:18;;;;;;;51.83;22.25;;;;;;;21.61;100.00;101385.53;6075275;19;20014;-74
2023/09/12 08:09:23;;;;;;;50.75;23.25;;;;;;;22.13;100.00;101391.25;6075693;19;20492;-74
2023/09/12 08:11:28;;;;;;;49.03;23.50;;;;;;;22.32;100.00;101394.16;6069073;19;20006;-74
2023/09/12 08:13:33;;;;;;;52.70;23.50;;;;;;;22.38;100.00;101397.31;6075877;19;20572;-74
2023/09/12 08:15:38;;;;;;;44.17;22.20;;;;;;;22.30;100.00;101396.16;6074364;19;20393;-74
2023/09/12 08:17:45;;;;;;;52.33;24.83;;;;;;;21.83;100.00;101394.56;6074469;19;20676;-74
2023/09/12 08:19:50;;;;;;;44.67;21.33;;;;;;;22.53;100.00;101388.88;6075705;19;21288;-74
2023/09/12 08:21:55;;;;;;;45.92;21.88;;;;;;;22.71;100.00;101394.56;6075387;19;20441;-74
2023/09/12 08:24:04;;;;;;;51.20;23.45;;;;;;;22.75;99.20;101393.34;6074533;19;20039;-74
2023/09/12 08:26:09;;;;;;;44.03;23.80;;;;;;;23.07;98.75;101395.16;6072068;19;20010;-74
2023/09/12 08:28:15;;;;;;;47.63;24.73;;;;;;;23.22;98.90;101398.34;6076741;19;20051;-73
2023/09/12 08:30:20;;;;;;;48.90;23.50;;;;;;;23.30;96.70;101403.94;6069791;19;20033;-74
2023/09/12 08:32:26;;;;;;;43.47;22.55;;;;;;;23.46;96.31;101400.81;6067233;19;20019;-72
2023/09/12 08:34:31;;;;;;;48.22;23.35;;;;;;;23.40;96.76;101406.66;6073293;19;20031;-72
2023/09/12 08:36:38;;;;;;;45.55;23.42;;;;;;;23.12;96.10;101398.31;6073412;19;20492;-73
2023/09/12 08:38:45;;;;;;;40.83;21.65;;;;;;;22.86;95.96;101392.44;6073270;19;20460;-73
2023/09/12 08:40:57;;;;;;;38.42;21.17;;;;;;;22.66;96.75;101391.41;6075475;19;20192;-73
2023/09/12 08:43:03;;;;;;;44.37;21.53;;;;;;;22.24;98.59;101399.31;6070517;19;20010;-73
2023/09/12 08:45:11;;;;;;;43.03;21.85;;;;;;;22.93;97.04;101395.44;6077820;19;20591;-73
2023/09/12 08:47:19;;;;;;;42.83;24.33;;;;;;;23.04;95.75;101392.75;6075243;19;20046;-73
2023/09/12 08:49:28;;;;;;;42.55;22.30;;;;;;;23.61;94.55;101387.88;6073434;19;20367;-73
2023/09/12 08:51:35;;;;;;;48.95;25.80;;;;;;;23.89;92.86;101397.06;6072794;19;20474;-73
2023/09/12 08:53:42;;;;;;;43.67;22.63;;;;;;;24.09;90.08;101388.13;6074237;19;20495;-72
2023/09/12 08:55:48;;;;;;;39.33;23.30;;;;;;;24.30;87.91;101388.03;6071017;19;20006;-73
2023/09/12 08:57:59;;;;;;;41.65;22.42;;;;;;;24.62;86.65;101378.91;6072170;19;20067;-73
2023/09/12 09:00:10;;;;;;;42.95;21.10;;;;;;;25.12;87.72;101391.31;6061304;19;20472;-73
2023/09/12 09:02:15;;;;;;;45.25;23.88;;;;;;;24.40;88.13;101382.66;6073447;19;20007;-74
2023/09/12 09:04:26;;;;;;;40.78;22.88;;;;;;;25.05;88.99;101388.38;6071235;19;20503;-74
2023/09/12 09:06:37;;;;;;;38.88;22.30;;;;;;;24.73;86.45;101396.72;6068367;19;20024;-73
2023/09/12 09:08:46;;;;;;;40.90;22.08;;;;;;;25.27;85.29;101392.59;6068660;19;20011;-73
2023/09/12 09:11:02;;;;;;;39.17;20.67;;;;;;;24.57;85.26;101397.28;6065515;19;20002;-73
2023/09/12 09:13:12;;;;;;;38.75;21.17;;;;;;;25.30;83.20;101391.47;6060019;19;20241;-74
2023/09/12 09:15:27;;;;;;;37.97;20.10;;;;;;;25.38;81.23;101395.16;6067322;19;20049;-73
2023/09/12 09:17:36;;;;;;;34.83;19.30;;;;;;;25.76;79.19;101387.94;6053222;19;20694;-74
2023/09/12 09:19:45;;;;;;;33.47;19.33;;;;;;;24.64;81.97;101393.03;6066032;19;20384;-74
2023/09/12 09:21:51;;;;;;;35.95;20.15;;;;;;;24.61;83.63;101392.47;6064905;19;20006;-74
2023/09/12 09:23:58;;;;;;;37.47;21.27;;;;;;;23.90;85.54;101398.75;6066056;19;20196;-73
2023/09/12 09:26:12;;;;;;;42.22;24.10;;;;;;;23.39;88.99;101404.97;6068596;19;20014;-73
2023/09/12 09:28:26;;;;;;;33.53;18.08;;;;;;;23.99;88.96;101395.28;6068564;19;20284;-73
2023/09/12 09:30:47;;;;;;;37.92;20.25;;;;;;;23.60;89.19;101404.97;6070922;19;20011;-73